createdAt,value
2019-03-24T00:01:41.376Z,36.30
2019-03-24T00:04:34.612Z,36.40
2019-03-24T00:07:31.179Z,36.30
2019-03-24T00:10:26.931Z,36.40
2019-03-24T00:13:24.939Z,36.50
2019-03-24T00:16:20.989Z,36.70
2019-03-24T00:19:17.491Z,36.90
2019-03-24T00:22:13.647Z,37.10
2019-03-24T00:25:10.997Z,37.30
2019-03-24T00:28:06.938Z,37.30
2019-03-24T00:31:03.701Z,37.40
2019-03-24T00:34:00.199Z,37.70
2019-03-24T00:36:56.362Z,37.80
2019-03-24T00:39:52.366Z,37.90
2019-03-24T00:42:48.560Z,37.90
2019-03-24T00:45:45.721Z,37.80
2019-03-24T00:48:42.235Z,37.80
2019-03-24T00:51:40.272Z,37.70
2019-03-24T00:54:36.975Z,37.90
2019-03-24T00:57:34.012Z,37.90
2019-03-24T01:00:46.547Z,37.90
2019-03-24T01:03:42.849Z,38.40
2019-03-24T01:06:39.335Z,37.80
2019-03-24T01:09:35.744Z,37.90
2019-03-24T01:12:31.807Z,38.10
2019-03-24T01:15:28.637Z,38.40
2019-03-24T01:18:25.272Z,38.70
2019-03-24T01:21:21.260Z,38.70
2019-03-24T01:24:17.758Z,38.80
2019-03-24T01:27:13.735Z,39.20
2019-03-24T01:30:10.316Z,39.00
2019-03-24T01:33:06.736Z,38.90
2019-03-24T01:36:03.442Z,38.90
2019-03-24T01:39:00.598Z,38.90
2019-03-24T01:41:57.799Z,39.30
2019-03-24T01:44:54.463Z,39.70
2019-03-24T01:47:50.920Z,40.00
2019-03-24T01:50:47.727Z,40.40
2019-03-24T01:53:45.968Z,41.00
2019-03-24T01:56:42.322Z,41.20
2019-03-24T01:59:39.590Z,41.70
2019-03-24T02:02:36.457Z,41.00
2019-03-24T02:05:32.955Z,40.80
2019-03-24T02:08:29.970Z,40.60
2019-03-24T02:11:26.109Z,40.50
2019-03-24T02:14:22.353Z,40.40
2019-03-24T02:17:18.416Z,40.40
2019-03-24T02:20:14.861Z,40.70
2019-03-24T02:23:11.434Z,41.10
2019-03-24T02:26:08.357Z,41.40
2019-03-24T02:29:05.082Z,41.30
2019-03-24T02:32:01.481Z,41.10
2019-03-24T02:34:57.953Z,40.50
2019-03-24T02:37:54.164Z,40.00
2019-03-24T02:40:50.437Z,39.40
2019-03-24T02:43:46.932Z,38.80
2019-03-24T02:46:45.039Z,38.40
2019-03-24T02:49:43.892Z,37.90
2019-03-24T02:52:40.449Z,37.70
2019-03-24T02:55:39.441Z,37.30
2019-03-24T02:58:36.243Z,37.00
2019-03-24T03:01:32.714Z,36.60
2019-03-24T03:04:28.874Z,36.50
2019-03-24T03:07:28.242Z,36.20
2019-03-24T03:10:24.938Z,35.80
2019-03-24T03:13:20.863Z,35.30
2019-03-24T03:16:17.255Z,34.90
2019-03-24T03:19:13.320Z,34.70
2019-03-24T03:22:09.722Z,34.20
2019-03-24T03:25:06.123Z,34.10
2019-03-24T03:28:02.557Z,34.00
2019-03-24T03:30:58.782Z,33.70
2019-03-24T03:33:55.049Z,33.60
2019-03-24T03:36:52.106Z,33.30
2019-03-24T03:39:49.384Z,33.50
2019-03-24T03:42:47.339Z,33.70
2019-03-24T03:45:44.816Z,33.80
2019-03-24T03:48:41.411Z,33.70
2019-03-24T03:51:40.677Z,33.60
2019-03-24T03:54:36.993Z,33.50
2019-03-24T03:57:35.292Z,33.50
2019-03-24T04:00:50.230Z,33.30
2019-03-24T04:03:46.162Z,33.20
2019-03-24T04:06:42.759Z,33.20
2019-03-24T04:09:39.209Z,33.20
2019-03-24T04:12:35.551Z,33.10
2019-03-24T04:15:31.396Z,33.10
2019-03-24T04:18:28.022Z,32.80
2019-03-24T04:21:24.411Z,32.80
2019-03-24T04:24:21.244Z,32.40
2019-03-24T04:27:17.795Z,32.30
2019-03-24T04:30:14.309Z,32.00
2019-03-24T04:33:11.452Z,31.90
2019-03-24T04:36:07.767Z,32.10
2019-03-24T04:39:04.278Z,32.40
2019-03-24T04:42:02.634Z,32.00
2019-03-24T04:44:56.710Z,31.60
2019-03-24T04:47:54.202Z,31.70
2019-03-24T04:50:51.043Z,32.10
2019-03-24T04:53:47.758Z,32.20
2019-03-24T04:56:44.142Z,31.60
2019-03-24T04:59:41.041Z,31.80
2019-03-24T05:02:37.939Z,32.10
2019-03-24T05:05:34.505Z,31.60
2019-03-24T05:08:31.860Z,30.90
2019-03-24T05:11:28.269Z,30.60
2019-03-24T05:14:24.503Z,30.90
2019-03-24T05:17:27.050Z,31.30
2019-03-24T05:20:17.750Z,31.20
2019-03-24T05:23:15.305Z,30.90
2019-03-24T05:26:12.361Z,30.90
2019-03-24T05:29:09.123Z,30.50
2019-03-24T05:32:05.930Z,30.30
2019-03-24T05:35:03.196Z,30.60
2019-03-24T05:37:59.911Z,31.40
2019-03-24T05:40:59.691Z,31.70
2019-03-24T05:43:57.757Z,31.60
2019-03-24T05:46:54.551Z,32.10
2019-03-24T05:49:50.557Z,31.90
2019-03-24T05:52:47.455Z,31.90
2019-03-24T05:55:44.625Z,31.40
2019-03-24T05:58:41.556Z,31.60
2019-03-24T06:01:37.697Z,32.00
2019-03-24T06:04:33.850Z,31.70
2019-03-24T06:07:29.957Z,31.90
2019-03-24T06:10:26.090Z,31.90
2019-03-24T06:13:22.041Z,31.80
2019-03-24T06:16:17.984Z,31.70
2019-03-24T06:19:14.406Z,31.90
2019-03-24T06:22:10.720Z,31.70
2019-03-24T06:25:07.280Z,31.90
2019-03-24T06:28:03.451Z,31.80
2019-03-24T06:31:01.732Z,31.60
2019-03-24T06:33:56.562Z,31.20
2019-03-24T06:36:52.745Z,31.30
2019-03-24T06:39:48.918Z,31.30
2019-03-24T06:42:45.713Z,30.80
2019-03-24T06:45:42.686Z,31.40
2019-03-24T06:48:39.343Z,31.40
2019-03-24T06:51:35.795Z,30.70
2019-03-24T06:54:32.416Z,30.70
2019-03-24T06:57:29.388Z,30.70
2019-03-24T07:00:25.395Z,30.90
2019-03-24T07:03:21.446Z,31.10
2019-03-24T07:06:17.703Z,30.90
2019-03-24T07:09:13.770Z,30.60
2019-03-24T07:12:11.712Z,30.10
2019-03-24T07:15:08.803Z,30.00
2019-03-24T07:18:08.666Z,30.00
2019-03-24T07:21:04.161Z,30.20
2019-03-24T07:24:00.620Z,30.00
2019-03-24T07:26:56.599Z,29.80
2019-03-24T07:29:53.252Z,29.20
2019-03-24T07:32:48.996Z,28.80
2019-03-24T07:35:45.394Z,29.10
2019-03-24T07:38:42.618Z,28.60
2019-03-24T07:41:39.272Z,28.40
2019-03-24T07:44:36.056Z,28.50
2019-03-24T07:47:32.079Z,28.70
2019-03-24T07:50:28.421Z,28.70
2019-03-24T07:53:24.471Z,28.70
2019-03-24T07:56:20.791Z,28.50
2019-03-24T07:59:16.658Z,28.20
2019-03-24T08:02:12.712Z,27.30
2019-03-24T08:05:08.810Z,27.30
2019-03-24T08:08:04.654Z,27.60
2019-03-24T08:11:00.494Z,27.50
2019-03-24T08:13:56.631Z,27.10
2019-03-24T08:16:53.064Z,27.00
2019-03-24T08:19:49.192Z,26.70
2019-03-24T08:22:45.530Z,26.80
2019-03-24T08:25:41.402Z,26.00
2019-03-24T08:28:37.913Z,25.80
2019-03-24T08:31:34.330Z,25.80
2019-03-24T08:34:31.005Z,25.50
2019-03-24T08:37:28.437Z,25.70
2019-03-24T08:40:24.413Z,25.70
2019-03-24T08:43:21.956Z,26.00
2019-03-24T08:46:18.328Z,26.10
2019-03-24T08:49:14.919Z,26.30
2019-03-24T08:52:12.791Z,26.60
2019-03-24T08:55:08.324Z,26.90
2019-03-24T08:58:04.423Z,26.40
2019-03-24T09:01:01.247Z,25.80
2019-03-24T09:03:58.042Z,25.70
2019-03-24T09:06:54.177Z,25.70
2019-03-24T09:09:50.605Z,25.80
2019-03-24T09:12:47.197Z,25.50
2019-03-24T09:15:43.284Z,25.20
2019-03-24T09:18:51.686Z,25.20
2019-03-24T09:21:39.774Z,24.70
2019-03-24T09:24:38.514Z,24.50
2019-03-24T09:27:34.395Z,24.20
2019-03-24T09:30:41.832Z,24.30
2019-03-24T09:33:38.836Z,24.50
2019-03-24T09:36:35.252Z,24.70
2019-03-24T09:39:31.489Z,24.50
2019-03-24T09:42:28.380Z,24.90
2019-03-24T09:45:25.709Z,25.40
2019-03-24T09:48:21.832Z,25.70
2019-03-24T09:51:18.152Z,25.90
2019-03-24T09:54:14.738Z,25.80
2019-03-24T09:57:11.851Z,25.70
2019-03-24T10:00:08.815Z,25.70
2019-03-24T10:03:05.813Z,25.10
2019-03-24T10:06:02.658Z,25.30
2019-03-24T10:08:58.951Z,23.50
2019-03-24T10:11:55.455Z,23.40
2019-03-24T10:14:53.562Z,22.80
2019-03-24T10:17:49.595Z,23.00
2019-03-24T10:20:47.426Z,23.20
2019-03-24T10:23:43.827Z,23.10
2019-03-24T10:26:39.660Z,23.20
2019-03-24T10:29:36.346Z,23.40
2019-03-24T10:32:32.426Z,23.60
2019-03-24T10:35:29.229Z,23.50
2019-03-24T10:38:26.261Z,22.70
2019-03-24T10:41:22.792Z,22.70
2019-03-24T10:44:19.804Z,22.70
2019-03-24T10:47:17.198Z,22.60
2019-03-24T10:50:14.515Z,22.60
2019-03-24T10:53:11.624Z,22.80
2019-03-24T10:56:07.675Z,23.10
2019-03-24T10:59:04.059Z,23.60
2019-03-24T11:02:01.359Z,23.10
2019-03-24T11:04:58.948Z,22.70
2019-03-24T11:07:55.220Z,22.10
2019-03-24T11:10:51.678Z,22.70
2019-03-24T11:13:48.494Z,22.20
2019-03-24T11:16:45.375Z,22.20
2019-03-24T11:19:42.220Z,21.70
2019-03-24T11:22:38.862Z,21.90
2019-03-24T11:25:36.184Z,22.30
2019-03-24T11:28:32.447Z,22.20
2019-03-24T11:31:29.387Z,22.10
2019-03-24T11:34:26.312Z,22.50
2019-03-24T11:37:23.950Z,22.50
2019-03-24T11:40:21.200Z,22.20
2019-03-24T11:43:17.582Z,22.00
2019-03-24T11:46:13.875Z,22.10
2019-03-24T11:49:19.668Z,22.10
2019-03-24T11:52:15.979Z,22.50
2019-03-24T11:55:13.018Z,22.30
2019-03-24T11:58:09.836Z,22.20
2019-03-24T12:01:06.505Z,22.00
2019-03-24T12:04:03.295Z,22.10
2019-03-24T12:07:00.034Z,22.40
2019-03-24T12:09:56.816Z,22.60
2019-03-24T12:12:53.463Z,22.70
2019-03-24T12:15:50.681Z,22.90
2019-03-24T12:18:46.883Z,22.80
2019-03-24T12:21:42.741Z,22.60
2019-03-24T12:24:39.895Z,23.10
2019-03-24T12:27:37.867Z,23.50
2019-03-24T12:30:34.087Z,23.20
2019-03-24T12:33:30.908Z,23.30
2019-03-24T12:36:27.830Z,23.40
2019-03-24T12:39:24.198Z,23.70
2019-03-24T12:42:20.989Z,24.00
2019-03-24T12:45:18.558Z,24.10
2019-03-24T12:48:14.716Z,24.30
2019-03-24T12:51:10.996Z,24.50
2019-03-24T12:54:07.859Z,24.70
2019-03-24T12:57:04.661Z,24.80
2019-03-24T13:00:01.632Z,24.90
2019-03-24T13:02:59.639Z,24.70
2019-03-24T13:05:56.048Z,24.70
2019-03-24T13:08:52.905Z,24.80
2019-03-24T13:11:50.533Z,25.10
2019-03-24T13:14:49.455Z,25.40
2019-03-24T13:17:45.427Z,25.40
2019-03-24T13:20:42.250Z,25.60
2019-03-24T13:23:39.678Z,25.80
2019-03-24T13:26:36.521Z,26.00
2019-03-24T13:29:33.466Z,25.80
2019-03-24T13:32:30.442Z,26.10
2019-03-24T13:35:27.318Z,26.00
2019-03-24T13:38:27.610Z,26.20
2019-03-24T13:41:24.115Z,26.30
2019-03-24T13:44:20.592Z,25.90
2019-03-24T13:47:17.260Z,26.70
2019-03-24T13:50:14.165Z,26.90
2019-03-24T13:53:11.290Z,27.00
2019-03-24T13:56:07.526Z,27.10
2019-03-24T13:59:04.102Z,27.10
2019-03-24T14:02:00.339Z,27.20
2019-03-24T14:04:58.075Z,27.50
2019-03-24T14:07:56.108Z,27.60
2019-03-24T14:10:53.853Z,27.80
2019-03-24T14:13:52.113Z,27.90
2019-03-24T14:16:50.730Z,28.00
2019-03-24T14:19:47.862Z,28.10
2019-03-24T14:22:45.975Z,28.10
2019-03-24T14:25:42.477Z,28.40
2019-03-24T14:28:39.454Z,28.60
2019-03-24T14:31:36.115Z,28.60
2019-03-24T14:34:33.835Z,28.60
2019-03-24T14:37:30.530Z,28.70
2019-03-24T14:40:29.090Z,28.80
2019-03-24T14:43:27.576Z,29.10
2019-03-24T14:46:23.838Z,29.40
2019-03-24T14:49:22.126Z,29.50
2019-03-24T14:52:19.409Z,29.60
2019-03-24T14:55:15.897Z,29.50
2019-03-24T14:58:14.129Z,29.60
2019-03-24T15:01:10.886Z,29.50
2019-03-24T15:04:06.811Z,29.50
2019-03-24T15:07:05.368Z,29.40
2019-03-24T15:10:01.564Z,29.10
2019-03-24T15:13:00.101Z,28.90
2019-03-24T15:15:56.538Z,28.80
2019-03-24T15:18:52.644Z,28.80
2019-03-24T15:21:50.090Z,28.70
2019-03-24T15:24:46.214Z,28.70
2019-03-24T15:27:43.609Z,28.60
2019-03-24T15:30:39.988Z,28.70
2019-03-24T15:33:36.971Z,28.90
2019-03-24T15:36:33.507Z,28.80
2019-03-24T15:39:29.718Z,28.90
2019-03-24T15:42:26.051Z,28.80
2019-03-24T15:45:22.795Z,28.70
2019-03-24T15:48:20.481Z,28.80
2019-03-24T15:51:17.318Z,28.80
2019-03-24T15:54:13.495Z,28.80
2019-03-24T15:57:10.460Z,28.90
2019-03-24T16:00:07.939Z,29.10
2019-03-24T16:03:04.899Z,29.30
2019-03-24T16:06:00.979Z,29.40
2019-03-24T16:08:57.574Z,29.40
2019-03-24T16:11:53.861Z,29.30
2019-03-24T16:14:50.177Z,29.40
2019-03-24T16:17:46.343Z,29.40
2019-03-24T16:20:43.244Z,29.30
2019-03-24T16:23:40.662Z,29.40
2019-03-24T16:26:37.700Z,29.50
2019-03-24T16:29:33.907Z,29.60
2019-03-24T16:32:30.853Z,29.90
2019-03-24T16:35:28.409Z,30.20
2019-03-24T16:38:25.478Z,30.40
2019-03-24T16:41:22.918Z,30.50
2019-03-24T16:44:20.488Z,30.90
2019-03-24T16:47:18.561Z,31.10
2019-03-24T16:50:16.391Z,31.40
2019-03-24T16:53:12.290Z,31.60
2019-03-24T16:56:08.854Z,31.70
2019-03-24T16:59:05.515Z,31.70
2019-03-24T17:02:02.597Z,31.60
2019-03-24T17:04:58.939Z,31.70
2019-03-24T17:07:55.687Z,31.80
2019-03-24T17:10:52.272Z,31.60
2019-03-24T17:13:48.892Z,31.40
2019-03-24T17:16:45.203Z,31.40
2019-03-24T17:19:41.616Z,31.30
2019-03-24T17:22:38.257Z,31.20
2019-03-24T17:25:35.195Z,31.20
2019-03-24T17:28:32.119Z,31.10
2019-03-24T17:31:29.154Z,31.10
2019-03-24T17:34:25.257Z,31.00
2019-03-24T17:37:22.081Z,31.20
2019-03-24T17:40:18.937Z,31.30
2019-03-24T17:43:15.766Z,31.40
2019-03-24T17:46:13.808Z,31.30
2019-03-24T17:49:10.806Z,31.20
2019-03-24T17:52:07.430Z,31.20
2019-03-24T17:55:04.317Z,31.30
2019-03-24T17:58:01.024Z,31.20
2019-03-24T18:00:58.951Z,31.40
2019-03-24T18:03:54.920Z,31.50
2019-03-24T18:06:51.436Z,31.30
2019-03-24T18:09:48.001Z,31.00
2019-03-24T18:12:44.304Z,30.50
2019-03-24T18:15:40.465Z,30.20
2019-03-24T18:18:36.971Z,30.20
2019-03-24T18:21:33.239Z,30.50
2019-03-24T18:24:29.728Z,30.70
2019-03-24T18:27:26.074Z,30.80
2019-03-24T18:30:22.919Z,30.70
2019-03-24T18:33:19.296Z,30.90
2019-03-24T18:36:15.875Z,31.20
2019-03-24T18:39:13.952Z,31.50
2019-03-24T18:42:13.008Z,31.80
2019-03-24T18:45:10.717Z,31.70
2019-03-24T18:48:07.470Z,32.00
2019-03-24T18:51:04.353Z,32.00
2019-03-24T18:54:00.591Z,31.80
2019-03-24T18:56:57.620Z,32.00
2019-03-24T18:59:53.933Z,31.90
2019-03-24T19:02:50.539Z,31.70
2019-03-24T19:05:47.330Z,31.70
2019-03-24T19:08:43.855Z,31.70
2019-03-24T19:11:40.642Z,32.00
2019-03-24T19:14:37.205Z,32.30
2019-03-24T19:17:33.792Z,32.20
2019-03-24T19:20:30.432Z,32.00
2019-03-24T19:23:26.976Z,31.70
2019-03-24T19:26:23.578Z,31.50
2019-03-24T19:29:20.190Z,31.30
2019-03-24T19:32:16.909Z,30.90
2019-03-24T19:35:13.853Z,30.50
2019-03-24T19:38:10.203Z,31.40
2019-03-24T19:41:06.979Z,31.60
2019-03-24T19:44:03.425Z,30.80
2019-03-24T19:46:59.987Z,30.50
2019-03-24T19:49:57.507Z,30.20
2019-03-24T19:52:54.195Z,30.10
2019-03-24T19:55:50.792Z,30.10
2019-03-24T19:58:47.381Z,30.50
2019-03-24T20:01:44.435Z,30.70
2019-03-24T20:04:41.318Z,30.70
2019-03-24T20:07:47.526Z,30.90
2019-03-24T20:10:34.597Z,31.10
2019-03-24T20:13:30.795Z,31.10
2019-03-24T20:16:27.127Z,31.10
2019-03-24T20:19:24.797Z,31.20
2019-03-24T20:22:20.627Z,31.40
2019-03-24T20:25:17.290Z,31.30
2019-03-24T20:28:14.081Z,31.60
2019-03-24T20:31:10.328Z,31.80
2019-03-24T20:34:06.657Z,32.00
2019-03-24T20:37:03.212Z,32.30
2019-03-24T20:39:59.782Z,32.40
2019-03-24T20:42:56.240Z,32.50
2019-03-24T20:45:52.786Z,32.60
2019-03-24T20:48:49.334Z,33.00
2019-03-24T20:51:45.742Z,33.40
2019-03-24T20:54:42.456Z,33.70
2019-03-24T20:57:38.970Z,33.60
2019-03-24T21:00:40.675Z,33.40
2019-03-24T21:03:37.453Z,33.30
2019-03-24T21:06:34.322Z,33.30
2019-03-24T21:09:30.947Z,33.30
2019-03-24T21:12:26.866Z,33.30
2019-03-24T21:15:23.500Z,33.50
2019-03-24T21:18:20.177Z,33.60
2019-03-24T21:21:16.925Z,33.70
2019-03-24T21:24:13.474Z,33.80
2019-03-24T21:27:09.881Z,34.00
2019-03-24T21:30:06.607Z,34.20
2019-03-24T21:33:03.330Z,34.70
2019-03-24T21:35:59.911Z,34.60
2019-03-24T21:38:57.443Z,34.90
2019-03-24T21:41:53.923Z,35.10
2019-03-24T21:44:50.615Z,35.30
2019-03-24T21:47:47.001Z,35.50
2019-03-24T21:50:44.162Z,35.80
2019-03-24T21:53:41.139Z,36.00
2019-03-24T21:56:38.441Z,36.20
2019-03-24T21:59:34.969Z,36.40
2019-03-24T22:02:31.651Z,36.70
2019-03-24T22:05:27.833Z,36.80
2019-03-24T22:08:24.407Z,37.00
2019-03-24T22:11:21.424Z,37.30
2019-03-24T22:14:18.136Z,37.20
2019-03-24T22:17:15.062Z,37.10
2019-03-24T22:20:12.351Z,37.10
2019-03-24T22:23:08.685Z,37.00
2019-03-24T22:26:04.780Z,36.90
2019-03-24T22:29:01.276Z,36.90
2019-03-24T22:31:58.667Z,36.80
2019-03-24T22:34:55.099Z,36.70
2019-03-24T22:37:51.741Z,36.80
2019-03-24T22:40:48.270Z,36.70
2019-03-24T22:43:45.036Z,36.80
2019-03-24T22:46:41.805Z,36.90
2019-03-24T22:49:38.059Z,37.10
2019-03-24T22:52:34.647Z,37.20
2019-03-24T22:55:30.752Z,37.30
2019-03-24T22:58:26.669Z,37.40
2019-03-24T23:01:23.243Z,37.40
2019-03-24T23:04:21.504Z,37.50
2019-03-24T23:07:17.537Z,37.60
2019-03-24T23:10:15.025Z,37.70
2019-03-24T23:13:11.520Z,37.70
2019-03-24T23:16:08.084Z,37.80
2019-03-24T23:19:04.459Z,37.80
2019-03-24T23:22:00.793Z,37.60
2019-03-24T23:24:57.011Z,37.40
2019-03-24T23:27:53.629Z,37.30
2019-03-24T23:30:50.415Z,37.20
2019-03-24T23:33:47.199Z,37.20
2019-03-24T23:36:43.967Z,37.30
2019-03-24T23:39:40.361Z,37.30
2019-03-24T23:42:38.161Z,37.20
2019-03-24T23:45:34.892Z,37.10
2019-03-24T23:48:32.004Z,37.00
2019-03-24T23:51:28.388Z,37.10
2019-03-24T23:54:27.328Z,37.20
2019-03-24T23:57:21.571Z,37.40
